createdAt,value
2023-02-02T00:01:48.212Z,2.40
2023-02-02T00:04:18.726Z,5.20
2023-02-02T00:06:47.309Z,3.55
2023-02-02T00:09:17.530Z,4.87
2023-02-02T00:11:47.070Z,3.57
2023-02-02T00:14:14.891Z,3.58
2023-02-02T00:16:43.544Z,3.20
2023-02-02T00:19:30.379Z,2.25
2023-02-02T00:21:58.117Z,3.72
2023-02-02T00:24:26.222Z,3.67
2023-02-02T00:26:56.526Z,4.22
2023-02-02T00:29:29.795Z,3.50
2023-02-02T00:31:58.228Z,12.63
2023-02-02T00:34:26.167Z,7.25
2023-02-02T00:36:54.051Z,9.90
2023-02-02T00:39:27.345Z,6.00
2023-02-02T00:41:55.772Z,5.18
2023-02-02T00:44:42.261Z,6.12
2023-02-02T00:47:10.166Z,4.78
2023-02-02T00:49:38.183Z,4.57
2023-02-02T00:52:05.776Z,3.97
2023-02-02T00:54:33.445Z,4.68
2023-02-02T00:57:01.313Z,3.85
2023-02-02T00:59:28.903Z,4.70
2023-02-02T01:01:56.559Z,4.65
2023-02-02T01:04:24.894Z,4.37
2023-02-02T01:06:52.476Z,4.70
2023-02-02T01:09:20.448Z,3.30
2023-02-02T01:11:48.916Z,4.50
2023-02-02T01:14:16.469Z,2.20
2023-02-02T01:16:44.108Z,5.80
2023-02-02T01:19:16.035Z,3.83
2023-02-02T01:21:43.943Z,2.70
2023-02-02T01:24:12.006Z,2.97
2023-02-02T01:26:39.686Z,4.60
2023-02-02T01:29:07.469Z,4.07
2023-02-02T01:31:35.344Z,5.07
2023-02-02T01:34:03.163Z,5.62
2023-02-02T01:36:31.044Z,3.17
2023-02-02T01:38:59.503Z,5.70
2023-02-02T01:41:27.579Z,2.75
2023-02-02T01:44:04.051Z,3.10
2023-02-02T01:46:36.930Z,5.40
2023-02-02T01:49:10.030Z,3.45
2023-02-02T01:51:59.326Z,2.97
2023-02-02T01:54:39.167Z,2.75
2023-02-02T01:57:21.323Z,3.95
2023-02-02T01:59:50.958Z,3.05
2023-02-02T02:02:19.484Z,3.80
2023-02-02T02:04:50.677Z,1.87
2023-02-02T02:07:19.211Z,2.58
2023-02-02T02:09:48.280Z,3.22
2023-02-02T02:12:16.935Z,4.93
2023-02-02T02:15:08.118Z,4.35
2023-02-02T02:17:51.172Z,7.03
2023-02-02T02:20:46.815Z,4.78
2023-02-02T02:23:35.803Z,4.37
2023-02-02T02:26:34.297Z,10.68
2023-02-02T02:29:05.613Z,5.10
2023-02-02T02:32:08.261Z,5.85
2023-02-02T02:35:17.194Z,6.95
2023-02-02T02:37:58.048Z,4.68
2023-02-02T02:40:26.128Z,10.55
2023-02-02T02:42:59.814Z,5.60
2023-02-02T02:45:28.995Z,1.95
2023-02-02T02:47:57.327Z,4.62
2023-02-02T02:50:25.463Z,3.83
2023-02-02T02:53:02.074Z,4.10
2023-02-02T02:55:42.891Z,3.03
2023-02-02T02:58:18.898Z,4.37
2023-02-02T03:01:09.279Z,5.65
2023-02-02T03:03:54.931Z,5.95
2023-02-02T03:06:32.380Z,3.58
2023-02-02T03:09:06.508Z,2.12
2023-02-02T03:11:35.491Z,6.78
2023-02-02T03:14:03.900Z,3.08
2023-02-02T03:16:31.613Z,2.20
2023-02-02T03:18:59.555Z,2.58
2023-02-02T03:21:27.174Z,2.87
2023-02-02T03:23:55.343Z,1.98
2023-02-02T03:26:23.306Z,4.78
2023-02-02T03:28:55.418Z,3.25
2023-02-02T03:31:24.966Z,2.90
2023-02-02T03:33:52.651Z,4.70
2023-02-02T03:36:20.193Z,3.28
2023-02-02T03:38:48.208Z,2.53
2023-02-02T03:41:15.827Z,1.83
2023-02-02T03:43:43.397Z,3.00
2023-02-02T03:46:11.261Z,1.95
2023-02-02T03:48:39.690Z,3.50
2023-02-02T03:51:13.786Z,2.05
2023-02-02T03:53:47.583Z,2.12
2023-02-02T03:56:16.173Z,4.15
2023-02-02T03:58:44.081Z,2.20
2023-02-02T04:01:14.649Z,3.35
2023-02-02T04:03:42.844Z,1.58
2023-02-02T04:06:10.371Z,1.35
2023-02-02T04:08:39.482Z,3.00
2023-02-02T04:11:10.660Z,1.40
2023-02-02T04:13:38.280Z,2.42
2023-02-02T04:16:06.255Z,2.80
2023-02-02T04:18:34.225Z,1.83
2023-02-02T04:21:02.290Z,1.12
2023-02-02T04:23:30.896Z,2.03
2023-02-02T04:25:59.278Z,1.87
2023-02-02T04:28:27.306Z,3.72
2023-02-02T04:30:55.850Z,1.83
2023-02-02T04:33:25.716Z,3.62
2023-02-02T04:35:53.314Z,2.95
2023-02-02T04:38:21.065Z,1.58
2023-02-02T04:40:49.445Z,4.65
2023-02-02T04:43:17.158Z,3.10
2023-02-02T04:45:45.121Z,1.70
2023-02-02T04:48:13.206Z,1.30
2023-02-02T04:50:40.781Z,0.90
2023-02-02T04:53:08.469Z,0.82
2023-02-02T04:55:37.934Z,1.05
2023-02-02T04:58:06.458Z,2.60
2023-02-02T05:00:34.160Z,2.40
2023-02-02T05:03:02.040Z,0.95
2023-02-02T05:05:29.560Z,0.80
2023-02-02T05:07:57.211Z,0.88
2023-02-02T05:10:25.155Z,1.33
2023-02-02T05:12:53.622Z,2.37
2023-02-02T05:15:22.444Z,3.75
2023-02-02T05:17:50.490Z,1.73
2023-02-02T05:20:18.302Z,2.67
2023-02-02T05:22:49.016Z,1.52
2023-02-02T05:25:17.492Z,1.73
2023-02-02T05:27:46.015Z,1.15
2023-02-02T05:30:14.678Z,1.58
2023-02-02T05:32:42.677Z,1.25
2023-02-02T05:35:11.064Z,3.58
2023-02-02T05:37:38.643Z,4.15
2023-02-02T05:40:07.686Z,11.48
2023-02-02T05:42:35.394Z,31.10
2023-02-02T05:45:03.227Z,9.23
2023-02-02T05:47:31.109Z,9.25
2023-02-02T05:49:58.754Z,1.42
2023-02-02T05:52:27.034Z,3.92
2023-02-02T05:54:54.881Z,3.30
2023-02-02T05:57:22.498Z,5.53
2023-02-02T05:59:50.061Z,1.60
2023-02-02T06:02:17.867Z,2.75
2023-02-02T06:04:45.810Z,1.45
2023-02-02T06:07:13.461Z,2.75
2023-02-02T06:09:41.129Z,1.52
2023-02-02T06:12:09.865Z,3.67
2023-02-02T06:14:37.593Z,4.62
2023-02-02T06:17:06.770Z,10.25
2023-02-02T06:19:34.728Z,8.82
2023-02-02T06:22:02.701Z,2.37
2023-02-02T06:24:30.380Z,3.20
2023-02-02T06:26:58.366Z,1.40
2023-02-02T06:29:26.010Z,1.98
2023-02-02T06:31:53.853Z,2.15
2023-02-02T06:34:22.002Z,1.33
2023-02-02T06:36:49.595Z,2.95
2023-02-02T06:39:17.462Z,1.45
2023-02-02T06:41:46.744Z,1.52
2023-02-02T06:44:15.468Z,3.42
2023-02-02T06:46:43.181Z,2.17
2023-02-02T06:49:11.052Z,1.00
2023-02-02T06:51:39.475Z,4.60
2023-02-02T06:54:07.282Z,2.08
2023-02-02T06:56:35.179Z,0.98
2023-02-02T06:59:02.826Z,1.48
2023-02-02T07:01:30.650Z,0.90
2023-02-02T07:03:58.752Z,2.47
2023-02-02T07:06:28.562Z,1.10
2023-02-02T07:09:02.791Z,1.40
2023-02-02T07:11:34.759Z,3.83
2023-02-02T07:14:05.821Z,1.10
2023-02-02T07:16:33.791Z,1.25
2023-02-02T07:19:01.616Z,2.40
2023-02-02T07:21:35.514Z,2.40
2023-02-02T07:24:05.374Z,3.00
2023-02-02T07:26:35.010Z,1.17
2023-02-02T07:29:04.607Z,5.60
2023-02-02T07:31:35.579Z,2.95
2023-02-02T07:34:04.317Z,2.05
2023-02-02T07:36:32.054Z,3.80
2023-02-02T07:39:02.081Z,2.55
2023-02-02T07:41:31.320Z,1.48
2023-02-02T07:43:58.960Z,1.12
2023-02-02T07:46:26.696Z,2.58
2023-02-02T07:48:55.734Z,1.20
2023-02-02T07:51:24.896Z,1.52
2023-02-02T07:53:54.644Z,1.77
2023-02-02T07:56:25.397Z,6.07
2023-02-02T07:58:54.573Z,1.70
2023-02-02T08:01:23.483Z,2.42
2023-02-02T08:03:53.346Z,1.73
2023-02-02T08:06:26.372Z,1.27
2023-02-02T08:08:54.511Z,4.37
2023-02-02T08:11:23.860Z,2.20
2023-02-02T08:13:54.011Z,2.55
2023-02-02T08:16:22.764Z,9.02
2023-02-02T08:18:50.571Z,5.00
2023-02-02T08:21:19.098Z,1.77
2023-02-02T08:23:47.614Z,3.90
2023-02-02T08:26:22.488Z,3.33
2023-02-02T08:29:03.350Z,1.98
2023-02-02T08:31:34.753Z,1.50
2023-02-02T08:34:03.702Z,4.57
2023-02-02T08:36:33.038Z,3.80
2023-02-02T08:39:03.260Z,1.65
2023-02-02T08:41:32.529Z,1.67
2023-02-02T08:44:00.798Z,2.12
2023-02-02T08:46:31.698Z,2.65
2023-02-02T08:48:59.654Z,2.60
2023-02-02T08:51:27.282Z,0.90
2023-02-02T08:53:54.997Z,2.28
2023-02-02T08:56:23.673Z,1.67
2023-02-02T08:58:54.473Z,2.30
2023-02-02T09:01:25.297Z,3.13
2023-02-02T09:04:07.248Z,8.02
2023-02-02T09:06:39.402Z,2.12
2023-02-02T09:09:10.956Z,4.03
2023-02-02T09:11:39.025Z,4.32
2023-02-02T09:14:08.172Z,2.70
2023-02-02T09:16:36.284Z,2.67
2023-02-02T09:19:04.964Z,2.95
2023-02-02T09:21:37.058Z,2.80
2023-02-02T09:24:12.601Z,4.18
2023-02-02T09:26:41.159Z,5.12
2023-02-02T09:29:12.352Z,5.82
2023-02-02T09:34:10.857Z,3.53
2023-02-02T09:36:39.772Z,3.65
2023-02-02T09:39:08.647Z,3.28
2023-02-02T09:41:39.561Z,2.03
2023-02-02T09:46:44.200Z,3.53
2023-02-02T09:49:22.677Z,5.72
2023-02-02T09:51:57.501Z,5.03
2023-02-02T09:54:35.839Z,3.35
2023-02-02T09:57:12.211Z,3.92
2023-02-02T09:59:43.041Z,5.28
2023-02-02T10:02:17.259Z,3.60
2023-02-02T10:04:49.706Z,3.50
2023-02-02T10:07:21.562Z,5.05
2023-02-02T10:10:18.138Z,3.83
2023-02-02T10:13:06.866Z,3.33
2023-02-02T10:15:35.239Z,2.33
2023-02-02T10:18:06.675Z,3.17
2023-02-02T10:20:39.500Z,4.35
2023-02-02T10:23:23.501Z,3.00
2023-02-02T10:25:56.508Z,3.22
2023-02-02T10:28:43.219Z,3.03
2023-02-02T10:31:34.198Z,2.65
2023-02-02T10:37:01.193Z,2.42
2023-02-02T10:39:43.843Z,3.35
2023-02-02T10:42:11.512Z,3.42
2023-02-02T10:44:54.627Z,2.53
2023-02-02T10:47:32.195Z,4.07
2023-02-02T10:50:07.838Z,4.57
2023-02-02T10:52:36.989Z,2.50
2023-02-02T10:55:10.732Z,7.28
2023-02-02T10:57:52.867Z,7.53
2023-02-02T11:00:46.292Z,3.70
2023-02-02T11:03:16.387Z,4.55
2023-02-02T11:06:02.884Z,5.50
2023-02-02T11:08:36.148Z,5.60
2023-02-02T11:11:34.715Z,6.85
2023-02-02T11:14:08.190Z,3.50
2023-02-02T11:16:43.052Z,4.60
2023-02-02T11:19:17.419Z,2.58
2023-02-02T11:21:54.802Z,3.95
2023-02-02T11:24:41.291Z,5.50
2023-02-02T11:27:20.703Z,4.22
2023-02-02T11:29:54.472Z,2.45
2023-02-02T11:32:25.132Z,3.53
2023-02-02T11:35:04.812Z,3.85
2023-02-02T11:37:35.361Z,3.42
2023-02-02T11:40:30.983Z,3.55
2023-02-02T11:43:02.623Z,6.53
2023-02-02T11:48:26.883Z,1.85
2023-02-02T11:51:00.126Z,2.78
2023-02-02T11:53:31.616Z,6.32
2023-02-02T11:56:24.013Z,3.62
2023-02-02T11:58:59.091Z,3.37
2023-02-02T12:01:31.096Z,2.47
2023-02-02T12:04:01.805Z,3.35
2023-02-02T12:06:38.491Z,3.28
2023-02-02T12:09:21.555Z,4.18
2023-02-02T12:11:57.713Z,2.92
2023-02-02T12:14:43.569Z,3.00
2023-02-02T12:17:19.278Z,3.83
2023-02-02T12:20:08.842Z,3.00
2023-02-02T12:22:45.347Z,1.98
2023-02-02T12:25:31.750Z,3.50
2023-02-02T12:28:11.436Z,1.60
2023-02-02T12:31:02.555Z,3.35
2023-02-02T12:33:38.770Z,2.80
2023-02-02T12:36:20.402Z,5.15
2023-02-02T12:38:55.498Z,1.77
2023-02-02T12:41:45.430Z,2.30
2023-02-02T12:44:57.905Z,2.62
2023-02-02T12:47:36.446Z,2.12
2023-02-02T12:50:21.122Z,1.95
2023-02-02T12:53:01.288Z,2.53
2023-02-02T12:55:36.899Z,3.80
2023-02-02T12:58:36.858Z,2.20
2023-02-02T13:01:19.151Z,4.75
2023-02-02T13:04:18.220Z,3.58
2023-02-02T13:06:57.558Z,2.92
2023-02-02T13:09:34.464Z,6.22
2023-02-02T13:12:09.388Z,3.08
2023-02-02T13:14:41.810Z,2.92
2023-02-02T13:17:18.461Z,2.30
2023-02-02T13:19:53.696Z,3.90
2023-02-02T13:22:47.166Z,2.62
2023-02-02T13:25:25.450Z,1.65
2023-02-02T13:27:54.742Z,3.33
2023-02-02T13:30:28.262Z,1.87
2023-02-02T13:33:00.248Z,4.57
2023-02-02T13:35:46.649Z,2.50
2023-02-02T13:38:24.449Z,2.05
2023-02-02T13:40:57.928Z,3.60
2023-02-02T13:43:34.496Z,3.95
2023-02-02T13:46:24.363Z,2.08
2023-02-02T13:49:41.129Z,1.90
2023-02-02T13:52:18.186Z,3.87
2023-02-02T13:55:07.512Z,2.28
2023-02-02T13:57:44.437Z,3.45
2023-02-02T14:00:33.890Z,4.93
2023-02-02T14:03:06.029Z,5.40
2023-02-02T14:05:38.027Z,1.73
2023-02-02T14:08:08.538Z,1.45
2023-02-02T14:11:05.089Z,3.05
2023-02-02T14:14:04.057Z,4.10
2023-02-02T14:16:31.529Z,1.33
2023-02-02T14:19:04.784Z,7.78
2023-02-02T14:21:35.115Z,2.05
2023-02-02T14:24:24.729Z,2.97
2023-02-02T14:26:53.519Z,2.35
2023-02-02T14:29:31.434Z,3.33
2023-02-02T14:32:00.536Z,2.40
2023-02-02T14:34:42.670Z,5.37
2023-02-02T14:37:20.603Z,3.05
2023-02-02T14:39:57.499Z,6.68
2023-02-02T14:43:01.677Z,9.10
2023-02-02T14:45:32.405Z,8.23
2023-02-02T14:48:09.243Z,8.87
2023-02-02T14:50:40.695Z,12.35
2023-02-02T14:53:14.770Z,8.05
2023-02-02T14:56:13.547Z,4.43
2023-02-02T14:58:47.915Z,3.58
2023-02-02T15:01:22.965Z,7.28
2023-02-02T15:04:25.912Z,4.57
2023-02-02T15:06:54.127Z,3.20
2023-02-02T15:09:33.500Z,3.85
2023-02-02T15:12:06.927Z,4.87
2023-02-02T15:14:56.282Z,2.70
2023-02-02T15:17:39.508Z,2.47
2023-02-02T15:20:40.127Z,10.93
2023-02-02T15:23:19.256Z,27.63
2023-02-02T15:25:59.404Z,10.55
2023-02-02T15:28:47.404Z,5.60
2023-02-02T15:31:50.651Z,11.40
2023-02-02T15:34:33.669Z,9.70
2023-02-02T15:37:06.403Z,6.15
2023-02-02T15:39:41.282Z,4.45
2023-02-02T15:42:41.442Z,12.32
2023-02-02T15:45:28.176Z,5.22
2023-02-02T15:47:57.745Z,8.25
2023-02-02T15:50:27.060Z,9.88
2023-02-02T15:52:55.938Z,3.67
2023-02-02T15:55:25.786Z,10.98
2023-02-02T15:57:55.253Z,17.70
2023-02-02T16:00:26.481Z,18.10
2023-02-02T16:03:00.426Z,14.55
2023-02-02T16:05:37.151Z,27.70
2023-02-02T16:08:13.289Z,9.05
2023-02-02T16:10:41.017Z,3.53
2023-02-02T16:13:22.459Z,4.40
2023-02-02T16:16:07.746Z,6.57
2023-02-02T16:18:36.252Z,3.70
2023-02-02T16:21:11.379Z,6.87
2023-02-02T16:23:39.534Z,3.80
2023-02-02T16:26:07.649Z,5.57
2023-02-02T16:28:35.716Z,4.80
2023-02-02T16:31:03.996Z,7.53
2023-02-02T16:34:00.240Z,12.35
2023-02-02T16:36:32.337Z,7.87
2023-02-02T16:39:01.388Z,6.43
2023-02-02T16:41:37.056Z,2.85
2023-02-02T16:44:33.437Z,7.43
2023-02-02T16:47:01.722Z,5.70
2023-02-02T16:49:30.299Z,6.37
2023-02-02T16:52:16.116Z,2.40
2023-02-02T16:54:55.870Z,7.40
2023-02-02T16:57:27.726Z,5.20
2023-02-02T17:00:00.140Z,10.35
2023-02-02T17:02:30.041Z,5.35
2023-02-02T17:05:21.222Z,7.93
2023-02-02T17:07:55.823Z,4.68
2023-02-02T17:11:00.604Z,2.75
2023-02-02T17:13:31.111Z,6.80
2023-02-02T17:16:00.596Z,3.78
2023-02-02T17:18:28.761Z,3.53
2023-02-02T17:21:03.776Z,5.62
2023-02-02T17:23:32.721Z,2.97
2023-02-02T17:26:00.538Z,3.22
2023-02-02T17:28:29.823Z,5.03
2023-02-02T17:31:09.709Z,3.10
2023-02-02T17:33:38.318Z,2.05
2023-02-02T17:36:07.271Z,1.87
2023-02-02T17:38:37.733Z,4.28
2023-02-02T17:41:06.439Z,4.43
2023-02-02T17:43:34.394Z,11.63
2023-02-02T17:46:03.562Z,2.53
2023-02-02T17:48:31.733Z,3.62
2023-02-02T17:51:03.200Z,2.50
2023-02-02T17:53:33.510Z,1.40
2023-02-02T17:56:02.060Z,2.75
2023-02-02T17:58:29.759Z,2.72
2023-02-02T18:00:59.214Z,4.65
2023-02-02T18:03:37.583Z,3.20
2023-02-02T18:06:05.760Z,4.28
2023-02-02T18:08:33.947Z,2.85
2023-02-02T18:11:02.397Z,4.78
2023-02-02T18:13:29.997Z,3.40
2023-02-02T18:15:59.745Z,5.78
2023-02-02T18:18:29.773Z,4.60
2023-02-02T18:20:59.012Z,2.87
2023-02-02T18:23:28.756Z,4.25
2023-02-02T18:25:56.651Z,3.85
2023-02-02T18:28:24.343Z,7.68
2023-02-02T18:30:52.618Z,3.87
2023-02-02T18:33:20.475Z,4.12
2023-02-02T18:35:48.782Z,4.10
2023-02-02T18:38:18.376Z,2.55
2023-02-02T18:40:55.109Z,8.52
2023-02-02T18:43:23.193Z,4.70
2023-02-02T18:46:02.000Z,5.45
2023-02-02T18:48:31.230Z,2.47
2023-02-02T18:50:59.532Z,3.37
2023-02-02T18:53:27.350Z,4.32
2023-02-02T18:55:55.653Z,5.53
2023-02-02T18:58:23.281Z,3.37
2023-02-02T19:00:53.395Z,5.93
2023-02-02T19:03:21.677Z,3.70
2023-02-02T19:06:07.862Z,3.65
2023-02-02T19:08:36.172Z,4.37
2023-02-02T19:11:17.474Z,2.97
2023-02-02T19:13:45.981Z,4.87
2023-02-02T19:16:16.830Z,3.80
2023-02-02T19:18:46.264Z,8.80
2023-02-02T19:21:15.410Z,3.50
2023-02-02T19:23:46.142Z,4.82
2023-02-02T19:26:24.623Z,5.22
2023-02-02T19:28:55.070Z,4.78
2023-02-02T19:31:23.377Z,5.25
2023-02-02T19:33:52.996Z,2.97
2023-02-02T19:36:23.450Z,5.28
2023-02-02T19:38:58.840Z,3.42
2023-02-02T19:41:26.806Z,3.58
2023-02-02T19:43:59.696Z,5.97
2023-02-02T19:46:30.059Z,2.72
2023-02-02T19:49:16.534Z,6.80
2023-02-02T19:51:51.516Z,6.95
2023-02-02T19:54:39.254Z,6.55
2023-02-02T19:57:13.090Z,3.15
2023-02-02T19:59:43.124Z,2.78
2023-02-02T20:02:33.085Z,4.68
2023-02-02T20:05:44.164Z,5.00
2023-02-02T20:08:21.066Z,5.45
2023-02-02T20:10:49.727Z,3.17
2023-02-02T20:13:55.850Z,4.30
2023-02-02T20:16:33.464Z,3.78
2023-02-02T20:19:02.188Z,3.60
2023-02-02T20:21:41.956Z,3.37
2023-02-02T20:24:24.343Z,5.45
2023-02-02T20:26:58.641Z,4.20
2023-02-02T20:29:36.574Z,3.08
2023-02-02T20:32:05.865Z,5.30
2023-02-02T20:34:40.245Z,4.97
2023-02-02T20:37:22.850Z,4.87
2023-02-02T20:40:21.151Z,5.90
2023-02-02T20:42:50.667Z,7.25
2023-02-02T20:45:19.023Z,11.10
2023-02-02T20:47:48.090Z,11.70
2023-02-02T20:50:19.341Z,16.65
2023-02-02T20:52:47.524Z,12.90
2023-02-02T20:55:16.210Z,14.38
2023-02-02T20:57:44.328Z,9.63
2023-02-02T21:00:16.046Z,9.18
2023-02-02T21:02:44.015Z,6.62
2023-02-02T21:05:11.996Z,6.47
2023-02-02T21:07:39.693Z,6.72
2023-02-02T21:10:07.761Z,6.05
2023-02-02T21:12:35.342Z,6.32
2023-02-02T21:15:04.142Z,7.28
2023-02-02T21:17:32.061Z,6.40
2023-02-02T21:20:00.333Z,8.65
2023-02-02T21:22:28.141Z,9.68
2023-02-02T21:24:56.063Z,11.27
2023-02-02T21:27:23.901Z,8.38
2023-02-02T21:29:51.932Z,17.77
2023-02-02T21:32:19.471Z,15.32
2023-02-02T21:34:49.353Z,26.55
2023-02-02T21:37:17.427Z,44.05
2023-02-02T21:39:49.651Z,37.60
2023-02-02T21:42:20.431Z,25.37
2023-02-02T21:44:53.657Z,28.40
2023-02-02T21:47:40.573Z,19.27
2023-02-02T21:50:20.044Z,15.30
2023-02-02T21:52:48.042Z,10.68
2023-02-02T21:55:33.811Z,8.88
2023-02-02T21:58:35.264Z,7.28
2023-02-02T22:01:32.939Z,50.63
2023-02-02T22:04:00.940Z,40.12
2023-02-02T22:06:33.049Z,41.58
2023-02-02T22:09:13.079Z,14.90
2023-02-02T22:11:58.373Z,10.57
2023-02-02T22:14:35.521Z,8.93
2023-02-02T22:17:47.196Z,12.68
2023-02-02T22:20:15.118Z,10.00
2023-02-02T22:22:46.476Z,11.52
2023-02-02T22:25:16.710Z,5.12
2023-02-02T22:27:54.073Z,5.25
2023-02-02T22:30:34.003Z,7.12
2023-02-02T22:33:02.292Z,4.05
2023-02-02T22:35:29.848Z,2.83
2023-02-02T22:37:57.582Z,5.35
2023-02-02T22:40:26.070Z,4.80
2023-02-02T22:42:55.915Z,39.30
2023-02-02T22:45:24.296Z,48.87
2023-02-02T22:47:52.832Z,74.68
2023-02-02T22:50:23.077Z,11.95
2023-02-02T22:52:51.584Z,29.50
2023-02-02T22:55:20.507Z,34.67
2023-02-02T22:57:48.420Z,31.23
2023-02-02T23:00:19.351Z,36.58
2023-02-02T23:02:47.429Z,20.95
2023-02-02T23:05:16.694Z,13.85
2023-02-02T23:07:45.330Z,9.43
2023-02-02T23:10:15.522Z,6.97
2023-02-02T23:12:43.638Z,9.90
2023-02-02T23:15:12.089Z,22.75
2023-02-02T23:17:40.484Z,23.23
2023-02-02T23:20:11.675Z,17.95
2023-02-02T23:22:39.399Z,15.60
2023-02-02T23:25:08.242Z,11.63
2023-02-02T23:27:36.196Z,14.32
2023-02-02T23:30:04.832Z,16.52
2023-02-02T23:32:33.151Z,12.82
2023-02-02T23:35:00.672Z,10.85
2023-02-02T23:37:28.282Z,15.20
2023-02-02T23:39:56.217Z,13.80
2023-02-02T23:42:23.845Z,14.23
2023-02-02T23:44:52.072Z,7.07
2023-02-02T23:47:20.194Z,7.20
2023-02-02T23:49:48.059Z,7.47
2023-02-02T23:52:16.027Z,3.87
2023-02-02T23:54:44.182Z,4.68
2023-02-02T23:57:11.911Z,4.35
2023-02-02T23:59:39.508Z,5.40
